createdAt,value
2018-09-01T00:00:05.709Z,24.6
2018-09-01T00:02:05.554Z,24.6
2018-09-01T00:04:05.352Z,24.6
2018-09-01T00:06:05.069Z,24.6
2018-09-01T00:08:07.294Z,24.6
2018-09-01T00:10:08.029Z,24.5
2018-09-01T00:12:07.251Z,24.6
2018-09-01T00:14:05.002Z,24.5
2018-09-01T00:16:04.828Z,24.6
2018-09-01T00:18:04.771Z,24.5
2018-09-01T00:20:05.440Z,24.5
2018-09-01T00:22:05.115Z,24.5
2018-09-01T00:24:15.007Z,24.5
2018-09-01T00:26:04.761Z,24.5
2018-09-01T00:28:05.450Z,24.5
2018-09-01T00:30:05.172Z,24.5
2018-09-01T00:32:07.398Z,24.5
2018-09-01T00:34:05.075Z,24.5
2018-09-01T00:36:04.792Z,24.5
2018-09-01T00:38:05.505Z,24.5
2018-09-01T00:40:05.219Z,24.5
2018-09-01T00:42:04.920Z,24.5
2018-09-01T00:44:04.636Z,24.5
2018-09-01T00:46:05.447Z,24.5
2018-09-01T00:48:05.226Z,24.5
2018-09-01T00:50:04.967Z,24.5
2018-09-01T00:52:04.674Z,24.5
2018-09-01T00:54:07.970Z,24.5
2018-09-01T00:56:07.187Z,24.5
2018-09-01T00:58:04.883Z,24.5
2018-09-01T01:00:05.573Z,24.5
2018-09-01T01:02:12.356Z,24.5
2018-09-01T01:04:05.158Z,24.5
2018-09-01T01:06:07.975Z,24.5
2018-09-01T01:08:04.669Z,24.5
2018-09-01T01:10:05.450Z,24.5
2018-09-01T01:12:05.157Z,24.5
2018-09-01T01:14:04.905Z,24.5
2018-09-01T01:16:04.640Z,24.4
2018-09-01T01:18:05.551Z,24.3
2018-09-01T01:20:04.822Z,24.3
2018-09-01T01:22:05.523Z,24.2
2018-09-01T01:24:04.770Z,24.2
2018-09-01T01:26:05.489Z,24.2
2018-09-01T01:28:05.216Z,24.1
2018-09-01T01:30:07.420Z,24
2018-09-01T01:32:05.096Z,24.1
2018-09-01T01:44:05.472Z,23.9
2018-09-01T01:45:12.394Z,24
2018-09-01T01:46:07.703Z,23.8
2018-09-01T01:48:07.936Z,23.8
2018-09-01T01:50:05.669Z,23.9
2018-09-01T01:52:07.499Z,23.8
2018-09-01T01:54:05.254Z,23.8
2018-09-01T01:56:05.002Z,23.8
2018-09-01T01:58:04.753Z,23.8
2018-09-01T02:00:05.496Z,23.8
2018-09-01T02:02:05.170Z,23.8
2018-09-01T02:04:04.880Z,23.7
2018-09-01T02:06:05.133Z,23.7
2018-09-01T02:08:04.918Z,23.7
2018-09-01T02:10:04.669Z,23.7
2018-09-01T02:12:05.392Z,23.7
2018-09-01T02:14:07.688Z,23.6
2018-09-01T02:16:07.421Z,23.6
2018-09-01T02:18:05.358Z,23.6
2018-09-01T02:20:05.038Z,23.6
2018-09-01T02:22:09.803Z,23.5
2018-09-01T02:24:08.017Z,23.6
2018-09-01T02:26:04.742Z,23.5
2018-09-01T02:28:05.427Z,23.5
2018-09-01T02:30:05.147Z,23.5
2018-09-01T02:32:04.889Z,23.5
2018-09-01T02:34:05.629Z,23.5
2018-09-01T02:36:05.295Z,23.5
2018-09-01T02:38:05.579Z,23.4
2018-09-01T02:40:04.844Z,23.4
2018-09-01T02:42:05.546Z,23.4
2018-09-01T02:44:10.308Z,23.4
2018-09-01T02:46:05.043Z,23.4
2018-09-01T02:48:07.369Z,23.4
2018-09-01T02:50:05.052Z,23.4
2018-09-01T02:52:04.826Z,23.4
2018-09-01T02:54:08.119Z,23.3
2018-09-01T02:56:05.156Z,23.3
2018-09-01T02:58:04.964Z,23.3
2018-09-01T03:00:04.633Z,23.3
2018-09-01T03:02:05.527Z,23.3
2018-09-01T03:04:05.223Z,23.3
2018-09-01T03:06:04.983Z,23.3
2018-09-01T03:08:04.697Z,23.3
2018-09-01T03:10:05.399Z,23.3
2018-09-01T03:12:05.135Z,23.3
2018-09-01T03:14:09.904Z,23.2
2018-09-01T03:16:15.708Z,23.2
2018-09-01T03:18:08.112Z,23.2
2018-09-01T03:20:04.789Z,23.2
2018-09-01T03:22:08.048Z,23.1
2018-09-01T03:24:04.796Z,23.2
2018-09-01T03:26:05.472Z,23.2
2018-09-01T03:28:10.286Z,23.1
2018-09-01T03:30:07.532Z,23.1
2018-09-01T03:32:05.250Z,23.1
2018-09-01T03:34:05.022Z,23.1
2018-09-01T03:36:04.690Z,23.1
2018-09-01T03:38:05.577Z,23.1
2018-09-01T03:40:12.937Z,23.1
2018-09-01T03:42:04.654Z,23.1
2018-09-01T03:44:07.930Z,23.1
2018-09-01T03:46:07.306Z,23
2018-09-01T03:48:07.524Z,23
2018-09-01T03:50:05.233Z,23
2018-09-01T03:52:04.935Z,23
2018-09-01T03:54:04.655Z,23
2018-09-01T03:56:07.911Z,23
2018-09-01T03:58:04.739Z,23
2018-09-01T04:00:05.469Z,23
2018-09-01T04:02:05.197Z,23
2018-09-01T04:04:04.973Z,23
2018-09-01T04:06:04.644Z,23
2018-09-01T04:08:05.363Z,22.9
2018-09-01T04:10:12.665Z,22.9
2018-09-01T04:12:09.959Z,22.9
2018-09-01T04:14:07.710Z,22.9
2018-09-01T04:16:05.391Z,22.9
2018-09-01T04:18:05.316Z,22.9
2018-09-01T04:20:10.069Z,22.9
2018-09-01T04:22:04.918Z,22.9
2018-09-01T04:24:05.652Z,22.9
2018-09-01T04:26:05.368Z,22.8
2018-09-01T04:28:05.299Z,22.9
2018-09-01T04:30:04.977Z,22.8
2018-09-01T04:32:04.768Z,22.8
2018-09-01T04:34:04.876Z,22.8
2018-09-01T04:36:10.662Z,22.8
2018-09-01T04:38:05.375Z,22.8
2018-09-01T04:40:08.806Z,22.8
2018-09-01T04:42:10.984Z,22.7
2018-09-01T04:44:07.557Z,22.7
2018-09-01T04:46:05.255Z,22.8
2018-09-01T04:48:07.570Z,22.7
2018-09-01T04:50:05.259Z,22.7
2018-09-01T04:52:05.132Z,22.8
2018-09-01T04:54:07.454Z,22.7
2018-09-01T04:56:07.664Z,22.7
2018-09-01T04:58:07.912Z,22.7
2018-09-01T05:00:04.629Z,22.7
2018-09-01T05:02:13.068Z,22.7
2018-09-01T05:04:09.811Z,22.7
2018-09-01T05:06:05.046Z,22.7
2018-09-01T05:08:04.760Z,22.6
2018-09-01T05:10:07.625Z,22.6
2018-09-01T05:12:05.338Z,22.6
2018-09-01T05:14:05.050Z,22.7
2018-09-01T05:16:04.746Z,22.6
2018-09-01T05:18:07.708Z,22.6
2018-09-01T05:20:05.419Z,22.6
2018-09-01T05:22:05.094Z,22.6
2018-09-01T05:24:04.879Z,22.6
2018-09-01T05:26:07.357Z,22.6
2018-09-01T05:28:05.044Z,22.6
2018-09-01T05:30:04.709Z,22.6
2018-09-01T05:32:04.919Z,22.6
2018-09-01T05:34:05.586Z,22.7
2018-09-01T05:36:05.333Z,22.7
2018-09-01T05:38:05.079Z,22.7
2018-09-01T05:40:04.858Z,22.7
2018-09-01T05:42:05.615Z,22.7
2018-09-01T05:44:07.959Z,22.7
2018-09-01T05:46:04.616Z,22.7
2018-09-01T05:48:05.414Z,22.7
2018-09-01T05:50:05.132Z,22.7
2018-09-01T05:52:04.883Z,22.8
2018-09-01T05:54:05.513Z,22.7
2018-09-01T05:56:05.144Z,22.7
2018-09-01T05:58:04.845Z,22.7
2018-09-01T06:00:05.578Z,22.8
2018-09-01T06:02:07.771Z,22.8
2018-09-01T06:04:08.028Z,22.8
2018-09-01T06:06:04.727Z,22.8
2018-09-01T06:08:05.387Z,22.8
2018-09-01T06:10:05.084Z,22.9
2018-09-01T06:12:13.060Z,22.9
2018-09-01T06:14:04.807Z,22.9
2018-09-01T06:16:05.104Z,22.9
2018-09-01T06:18:07.532Z,22.9
2018-09-01T06:20:05.222Z,22.9
2018-09-01T06:22:05.424Z,22.9
2018-09-01T06:24:07.242Z,23
2018-09-01T06:26:04.976Z,23
2018-09-01T06:28:04.767Z,23
2018-09-01T06:30:05.470Z,23
2018-09-01T06:32:05.318Z,23
2018-09-01T06:34:07.542Z,23
2018-09-01T06:36:05.262Z,23
2018-09-01T06:38:05.058Z,23
2018-09-01T06:40:07.292Z,23.1
2018-09-01T06:42:05.021Z,23
2018-09-01T06:44:04.691Z,23.1
2018-09-01T06:46:04.879Z,23.1
2018-09-01T06:48:05.532Z,23.1
2018-09-01T06:50:05.289Z,23.1
2018-09-01T06:52:07.521Z,23.1
2018-09-01T06:54:05.184Z,23.1
2018-09-01T06:56:05.395Z,23.1
2018-09-01T06:58:05.095Z,23.1
2018-09-01T07:00:07.320Z,23.1
2018-09-01T07:02:13.121Z,23.1
2018-09-01T07:04:04.890Z,23.1
2018-09-01T07:06:05.123Z,23
2018-09-01T07:08:05.310Z,23
2018-09-01T07:10:05.593Z,23
2018-09-01T07:12:07.857Z,23
2018-09-01T07:14:05.522Z,22.9
2018-09-01T07:16:05.181Z,22.9
2018-09-01T07:18:07.168Z,22.9
2018-09-01T07:20:04.872Z,22.9
2018-09-01T07:22:08.144Z,22.9
2018-09-01T07:24:04.873Z,22.9
2018-09-01T07:26:05.193Z,22.9
2018-09-01T07:28:12.500Z,22.9
2018-09-01T07:30:04.860Z,22.9
2018-09-01T07:32:07.696Z,22.9
2018-09-01T07:34:05.482Z,23
2018-09-01T07:36:05.176Z,23
2018-09-01T07:38:10.464Z,23.1
2018-09-01T07:40:07.450Z,23.2
2018-09-01T07:42:10.208Z,23.3
2018-09-01T07:44:07.906Z,23.3
2018-09-01T07:46:07.612Z,23.3
2018-09-01T07:48:05.275Z,23.3
2018-09-01T07:50:05.092Z,23.3
2018-09-01T07:52:05.313Z,23.4
2018-09-01T07:54:12.606Z,23.5
2018-09-01T07:56:04.982Z,23.5
2018-09-01T07:58:05.323Z,23.5
2018-09-01T08:00:07.568Z,23.5
2018-09-01T08:02:04.812Z,23.5
2018-09-01T08:04:05.527Z,23.6
2018-09-01T08:06:07.725Z,23.6
2018-09-01T08:08:04.701Z,23.6
2018-09-01T08:10:05.409Z,23.6
2018-09-01T08:12:05.137Z,23.6
2018-09-01T08:14:05.035Z,23.5
2018-09-01T08:16:08.010Z,23.6
2018-09-01T08:18:04.940Z,23.6
2018-09-01T08:20:04.686Z,23.7
2018-09-01T08:22:05.011Z,23.7
2018-09-01T08:24:09.760Z,23.8
2018-09-01T08:26:05.687Z,23.8
2018-09-01T08:28:04.817Z,23.8
2018-09-01T08:30:05.537Z,23.8
2018-09-01T08:32:05.212Z,23.9
2018-09-01T08:34:07.993Z,23.9
2018-09-01T08:36:04.691Z,23.9
2018-09-01T08:38:05.401Z,23.9
2018-09-01T08:40:05.085Z,24
2018-09-01T08:42:05.467Z,24
2018-09-01T08:44:05.187Z,24
2018-09-01T08:46:05.174Z,24.1
2018-09-01T08:48:07.495Z,24.1
2018-09-01T08:50:04.858Z,24.2
2018-09-01T08:52:08.045Z,24.2
2018-09-01T08:54:09.761Z,24.2
2018-09-01T08:56:04.642Z,24.2
2018-09-01T08:58:05.359Z,24.2
2018-09-01T09:00:07.238Z,24.3
2018-09-01T09:02:04.913Z,24.3
2018-09-01T09:04:05.584Z,24.3
2018-09-01T09:06:05.425Z,24.3
2018-09-01T09:08:05.143Z,24.3
2018-09-01T09:10:04.844Z,24.3
2018-09-01T09:12:05.554Z,24.4
2018-09-01T09:14:04.789Z,24.4
2018-09-01T09:16:08.072Z,24.4
2018-09-01T09:18:05.580Z,24.4
2018-09-01T09:20:05.291Z,24.4
2018-09-01T09:22:05.515Z,24.4
2018-09-01T09:24:05.217Z,24.4
2018-09-01T09:26:04.894Z,24.4
2018-09-01T09:28:05.125Z,24.4
2018-09-01T09:30:09.967Z,24.4
2018-09-01T09:32:04.710Z,24.4
2018-09-01T09:34:05.361Z,24.4
2018-09-01T09:36:05.018Z,24.5
2018-09-01T09:38:07.223Z,24.5
2018-09-01T09:40:04.926Z,24.5
2018-09-01T09:42:07.305Z,24.5
2018-09-01T09:44:05.027Z,24.5
2018-09-01T09:46:04.726Z,24.4
2018-09-01T09:48:04.752Z,24.5
2018-09-01T09:50:08.003Z,24.5
2018-09-01T09:52:04.679Z,24.5
2018-09-01T09:54:05.605Z,24.5
2018-09-01T09:56:05.396Z,24.5
2018-09-01T09:58:05.202Z,24.5
2018-09-01T10:00:05.636Z,24.5
2018-09-01T10:02:05.295Z,24.5
2018-09-01T10:04:05.026Z,24.4
2018-09-01T10:06:04.728Z,24.4
2018-09-01T10:08:05.443Z,24.4
2018-09-01T10:10:05.226Z,24.4
2018-09-01T10:12:07.458Z,24.4
2018-09-01T10:14:05.166Z,24.4
2018-09-01T10:16:04.823Z,24.4
2018-09-01T10:18:04.763Z,24.4
2018-09-01T10:20:05.507Z,24.4
2018-09-01T10:22:05.482Z,24.4
2018-09-01T10:24:05.243Z,24.4
2018-09-01T10:26:04.928Z,24.4
2018-09-01T10:28:08.143Z,24.4
2018-09-01T10:30:05.271Z,24.3
2018-09-01T10:32:07.765Z,24.4
2018-09-01T10:34:07.849Z,24.3
2018-09-01T10:36:05.073Z,24.3
2018-09-01T10:38:04.814Z,24.3
2018-09-01T10:40:13.141Z,24.3
2018-09-01T10:42:05.419Z,24.3
2018-09-01T10:44:04.833Z,24.3
2018-09-01T10:46:05.506Z,24.3
2018-09-01T10:48:05.232Z,24.3
2018-09-01T10:50:05.259Z,24.3
2018-09-01T10:52:04.988Z,24.3
2018-09-01T10:54:04.669Z,24.3
2018-09-01T10:56:05.374Z,24.3
2018-09-01T10:58:05.132Z,24.2
2018-09-01T11:00:07.370Z,24.2
2018-09-01T11:02:07.583Z,24.2
2018-09-01T11:04:05.370Z,24.2
2018-09-01T11:06:05.107Z,24.2
2018-09-01T11:08:10.350Z,24.2
2018-09-01T11:10:08.116Z,24.2
2018-09-01T11:12:05.355Z,24.2
2018-09-01T11:14:05.139Z,24.2
2018-09-01T11:16:07.355Z,24.2
2018-09-01T11:18:10.381Z,24.1
2018-09-01T11:20:05.340Z,24.1
2018-09-01T11:22:05.319Z,24.1
2018-09-01T11:24:07.560Z,24.1
2018-09-01T11:26:07.824Z,24.1
2018-09-01T11:28:05.705Z,24.1
2018-09-01T11:30:07.911Z,24.1
2018-09-01T11:32:05.213Z,24.1
2018-09-01T11:34:09.981Z,24.1
2018-09-01T11:36:04.845Z,24.1
2018-09-01T11:38:04.756Z,24
2018-09-01T11:40:05.445Z,24
2018-09-01T11:42:05.185Z,24
2018-09-01T11:44:04.872Z,24
2018-09-01T11:46:05.004Z,24
2018-09-01T11:48:04.675Z,24
2018-09-01T11:50:05.373Z,24
2018-09-01T11:52:04.798Z,24
2018-09-01T11:54:04.906Z,24
2018-09-01T11:56:05.652Z,24
2018-09-01T11:58:05.426Z,24
2018-09-01T12:00:05.153Z,24
2018-09-01T12:02:04.852Z,24
2018-09-01T12:04:07.374Z,24
2018-09-01T12:06:05.243Z,24
2018-09-01T12:08:10.072Z,24
2018-09-01T12:10:04.715Z,24
2018-09-01T12:12:04.941Z,24
2018-09-01T12:14:05.195Z,24
2018-09-01T12:16:07.468Z,24
2018-09-01T12:18:05.403Z,24
2018-09-01T12:20:05.135Z,24
2018-09-01T12:22:07.393Z,24
2018-09-01T12:24:05.102Z,24
2018-09-01T12:26:07.431Z,24
2018-09-01T12:28:05.267Z,24
2018-09-01T12:30:07.170Z,24
2018-09-01T12:32:13.003Z,24
2018-09-01T12:34:04.657Z,24
2018-09-01T12:36:05.342Z,23.9
2018-09-01T12:38:05.156Z,24
2018-09-01T12:40:05.384Z,23.9
2018-09-01T12:42:05.139Z,24
2018-09-01T12:44:07.903Z,23.9
2018-09-01T12:46:05.162Z,23.9
2018-09-01T12:48:04.643Z,23.9
2018-09-01T12:50:07.412Z,23.9
2018-09-01T12:52:05.074Z,23.9
2018-09-01T12:54:05.347Z,24
2018-09-01T12:56:04.798Z,23.9
2018-09-01T12:58:05.485Z,23.9
2018-09-01T13:00:05.178Z,23.9
2018-09-01T13:02:04.861Z,23.9
2018-09-01T13:04:08.121Z,23.9
2018-09-01T13:06:04.803Z,24
2018-09-01T13:08:05.667Z,23.9
2018-09-01T13:10:05.181Z,24
2018-09-01T13:12:07.512Z,23.9
2018-09-01T13:14:05.207Z,23.9
2018-09-01T13:16:04.932Z,24
2018-09-01T13:18:04.888Z,24
2018-09-01T13:20:15.667Z,24
2018-09-01T13:22:05.476Z,24
2018-09-01T13:24:07.703Z,24
2018-09-01T13:26:05.351Z,24
2018-09-01T13:28:05.571Z,24
2018-09-01T13:30:05.268Z,24
2018-09-01T13:32:10.522Z,24
2018-09-01T13:34:07.368Z,24
2018-09-01T13:36:04.681Z,24
2018-09-01T13:38:05.447Z,24
2018-09-01T13:40:05.198Z,24
2018-09-01T13:42:07.366Z,24
2018-09-01T13:44:07.614Z,24
2018-09-01T13:46:05.385Z,24
2018-09-01T13:48:05.439Z,24
2018-09-01T13:50:07.645Z,24
2018-09-01T13:52:05.351Z,24
2018-09-01T13:54:05.111Z,24
2018-09-01T13:56:05.025Z,24
2018-09-01T13:58:07.247Z,24
2018-09-01T14:00:04.890Z,24.1
2018-09-01T14:02:05.111Z,24
2018-09-01T14:04:04.900Z,24
2018-09-01T14:06:10.676Z,24.1
2018-09-01T14:08:04.919Z,24.1
2018-09-01T14:10:04.719Z,24.1
2018-09-01T14:12:05.451Z,24.1
2018-09-01T14:14:05.104Z,24.1
2018-09-01T14:16:05.288Z,24.1
2018-09-01T14:18:09.783Z,24.1
2018-09-01T14:20:05.444Z,24.1
2018-09-01T14:22:07.699Z,24.1
2018-09-01T14:24:05.349Z,24.1
2018-09-01T14:26:05.016Z,24.1
2018-09-01T14:28:04.704Z,24.1
2018-09-01T14:30:05.393Z,24.2
2018-09-01T14:32:04.779Z,24.2
2018-09-01T14:34:05.594Z,24.2
2018-09-01T14:36:07.917Z,24.1
2018-09-01T14:38:05.212Z,24.1
2018-09-01T14:40:05.036Z,24.1
2018-09-01T14:42:07.297Z,24
2018-09-01T14:44:10.077Z,24
2018-09-01T14:46:04.778Z,24
2018-09-01T14:48:05.635Z,23.8
2018-09-01T14:50:05.509Z,23.8
2018-09-01T14:52:10.258Z,23.9
2018-09-01T14:54:04.975Z,23.9
2018-09-01T14:56:04.733Z,24
2018-09-01T14:58:04.963Z,23.9
2018-09-01T15:00:04.723Z,23.9
2018-09-01T15:02:05.026Z,23.8
2018-09-01T15:04:04.702Z,23.8
2018-09-01T15:06:05.366Z,23.7
2018-09-01T15:08:05.058Z,23.7
2018-09-01T15:10:04.807Z,23.7
2018-09-01T15:12:04.706Z,23.7
2018-09-01T15:14:25.698Z,23.6
2018-09-01T15:16:05.381Z,23.6
2018-09-01T15:18:07.844Z,23.6
2018-09-01T15:20:10.652Z,23.6
2018-09-01T15:22:04.839Z,23.6
2018-09-01T15:24:05.500Z,23.5
2018-09-01T15:26:05.200Z,23.6
2018-09-01T15:28:04.929Z,23.5
2018-09-01T15:30:05.623Z,23.5
2018-09-01T15:32:04.876Z,23.5
2018-09-01T15:34:08.123Z,23.6
2018-09-01T15:36:10.566Z,23.5
2018-09-01T15:38:05.305Z,23.5
2018-09-01T15:40:05.040Z,23.5
2018-09-01T15:42:04.734Z,23.5
2018-09-01T15:44:05.406Z,23.5
2018-09-01T15:46:05.079Z,23.5
2018-09-01T15:48:09.880Z,23.4
2018-09-01T15:50:05.108Z,23.4
2018-09-01T15:52:04.793Z,23.4
2018-09-01T15:54:05.502Z,23.4
2018-09-01T15:56:05.353Z,23.4
2018-09-01T15:58:07.630Z,23.5
2018-09-01T16:00:05.398Z,23.5
2018-09-01T16:02:05.626Z,23.5
2018-09-01T16:04:05.327Z,23.5
2018-09-01T16:06:05.077Z,23.5
2018-09-01T16:08:07.279Z,23.5
2018-09-01T16:10:05.481Z,23.5
2018-09-01T16:12:04.840Z,23.5
2018-09-01T16:14:05.576Z,23.5
2018-09-01T16:16:05.290Z,23.5
2018-09-01T16:18:07.723Z,23.5
2018-09-01T16:20:05.036Z,23.5
2018-09-01T16:22:10.037Z,23.6
2018-09-01T16:24:04.773Z,23.6
2018-09-01T16:26:05.045Z,23.6
2018-09-01T16:28:05.408Z,23.5
2018-09-01T16:30:05.091Z,23.6
2018-09-01T16:32:07.367Z,23.6
2018-09-01T16:34:05.565Z,23.6
2018-09-01T16:36:05.290Z,23.6
2018-09-01T16:38:04.984Z,23.7
2018-09-01T16:40:04.689Z,23.7
2018-09-01T16:42:05.380Z,23.6
2018-09-01T16:44:05.131Z,23.7
2018-09-01T16:46:04.840Z,23.6
2018-09-01T16:48:10.568Z,23.7
2018-09-01T16:50:05.242Z,23.7
2018-09-01T16:52:04.975Z,23.7
2018-09-01T16:54:04.904Z,23.7
2018-09-01T16:56:05.599Z,23.8
2018-09-01T16:58:12.831Z,23.9
2018-09-01T17:00:05.515Z,23.9
2018-09-01T17:02:05.211Z,23.9
2018-09-01T17:04:09.929Z,24
2018-09-01T17:06:05.627Z,24
2018-09-01T17:08:04.896Z,24
2018-09-01T17:10:05.583Z,24
2018-09-01T17:12:07.861Z,24
2018-09-01T17:14:05.551Z,24
2018-09-01T17:16:05.224Z,24
2018-09-01T17:18:05.132Z,24.1
2018-09-01T17:20:07.883Z,24.1
2018-09-01T17:22:05.598Z,24.1
2018-09-01T17:24:04.777Z,24.1
2018-09-01T17:26:05.639Z,24.2
2018-09-01T17:28:05.684Z,24.2
2018-09-01T17:30:04.883Z,24.1
2018-09-01T17:32:05.126Z,24.2
2018-09-01T17:34:04.856Z,24.2
2018-09-01T17:36:05.584Z,24.2
2018-09-01T17:38:05.302Z,24.3
2018-09-01T17:40:04.993Z,24.2
2018-09-01T17:42:04.686Z,24.3
2018-09-01T17:44:05.447Z,24.3
2018-09-01T17:46:07.659Z,24.3
2018-09-01T17:48:05.316Z,24.3
2018-09-01T17:50:05.016Z,24.3
2018-09-01T17:52:05.316Z,24.3
2018-09-01T17:54:10.591Z,24.3
2018-09-01T17:56:05.314Z,24.3
2018-09-01T17:58:05.100Z,24.3
2018-09-01T18:00:09.852Z,24.3
2018-09-01T18:02:08.165Z,24.3
2018-09-01T18:04:07.864Z,24.3
2018-09-01T18:06:04.760Z,24.3
2018-09-01T18:08:07.969Z,24.3
2018-09-01T18:10:04.706Z,24.3
2018-09-01T18:12:05.391Z,24.3
2018-09-01T18:14:12.620Z,24.3
2018-09-01T18:16:05.288Z,24.3
2018-09-01T18:18:07.698Z,24.3
2018-09-01T18:20:05.397Z,24.3
2018-09-01T18:22:07.623Z,24.3
2018-09-01T18:24:05.417Z,24.3
2018-09-01T18:26:04.638Z,24.3
2018-09-01T18:28:05.321Z,24.3
2018-09-01T18:30:05.050Z,24.3
2018-09-01T18:32:05.255Z,24.3
2018-09-01T18:34:05.445Z,24.3
2018-09-01T18:36:05.230Z,24.3
2018-09-01T18:38:04.987Z,24.3
2018-09-01T18:40:04.752Z,24.3
2018-09-01T18:42:08.088Z,24.3
2018-09-01T18:44:04.782Z,24.3
2018-09-01T18:46:05.466Z,24.3
2018-09-01T18:48:05.146Z,24.3
2018-09-01T18:50:04.858Z,24.3
2018-09-01T18:52:08.115Z,24.3
2018-09-01T18:54:12.462Z,24.3
2018-09-01T18:56:05.561Z,24.3
2018-09-01T18:58:05.352Z,24.3
2018-09-01T19:00:05.565Z,24.3
2018-09-01T19:02:04.997Z,24.3
2018-09-01T19:04:07.218Z,24.3
2018-09-01T19:06:04.940Z,24.4
2018-09-01T19:08:04.731Z,24.3
2018-09-01T19:10:10.528Z,24.3
2018-09-01T19:12:05.175Z,24.4
2018-09-01T19:14:07.497Z,24.3
2018-09-01T19:16:05.596Z,24.3
2018-09-01T19:18:05.577Z,24.3
2018-09-01T19:20:07.323Z,24.3
2018-09-01T19:22:05.057Z,24.4
2018-09-01T19:24:04.779Z,24.3
2018-09-01T19:26:05.066Z,24.3
2018-09-01T19:28:04.896Z,24.3
2018-09-01T19:30:10.708Z,24.3
2018-09-01T19:32:05.449Z,24.3
2018-09-01T19:34:05.141Z,24.3
2018-09-01T19:36:04.779Z,24.3
2018-09-01T19:38:07.944Z,24.3
2018-09-01T19:40:04.620Z,24.3
2018-09-01T19:42:09.918Z,24.3
2018-09-01T19:44:05.117Z,24.3
2018-09-01T19:46:04.877Z,24.3
2018-09-01T19:48:05.086Z,24.3
2018-09-01T19:50:07.395Z,24.3
2018-09-01T19:52:04.711Z,24.3
2018-09-01T19:54:07.933Z,24.3
2018-09-01T19:56:04.688Z,24.3
2018-09-01T19:58:05.396Z,24.3
2018-09-01T20:00:05.071Z,24.3
2018-09-01T20:02:04.785Z,24.3
2018-09-01T20:04:05.484Z,24.3
2018-09-01T20:06:05.320Z,24.3
2018-09-01T20:08:05.021Z,24.3
2018-09-01T20:10:07.276Z,24.3
2018-09-01T20:12:04.965Z,24.2
2018-09-01T20:14:07.262Z,24.3
2018-09-01T20:16:07.969Z,24.3
2018-09-01T20:18:05.417Z,24.2
2018-09-01T20:20:10.158Z,24.3
2018-09-01T20:22:04.848Z,24.3
2018-09-01T20:24:05.524Z,24.2
2018-09-01T20:26:05.249Z,24.2
2018-09-01T20:28:04.962Z,24.2
2018-09-01T20:30:09.661Z,24.2
2018-09-01T20:32:05.360Z,24.2
2018-09-01T20:34:05.579Z,24.2
2018-09-01T20:36:11.382Z,24.2
2018-09-01T20:38:07.628Z,24.2
2018-09-01T20:40:05.197Z,24.2
2018-09-01T20:42:04.934Z,24.2
2018-09-01T20:44:04.857Z,24.2
2018-09-01T20:46:05.567Z,24.2
2018-09-01T20:48:07.818Z,24.2
2018-09-01T20:50:05.523Z,24.2
2018-09-01T20:52:05.359Z,24.2
2018-09-01T20:54:05.233Z,24.2
2018-09-01T20:56:07.422Z,24.2
2018-09-01T20:58:05.094Z,24.2
2018-09-01T21:00:07.333Z,24.2
2018-09-01T21:02:10.592Z,24.2
2018-09-01T21:04:05.306Z,24.2
2018-09-01T21:06:05.114Z,24.2
2018-09-01T21:08:04.840Z,24.2
2018-09-01T21:10:05.549Z,24.2
2018-09-01T21:12:05.399Z,24.2
2018-09-01T21:14:10.129Z,24.2
2018-09-01T21:16:04.873Z,24.1
2018-09-01T21:18:04.740Z,24.2
2018-09-01T21:20:07.144Z,24.2
2018-09-01T21:22:07.893Z,24.2
2018-09-01T21:24:05.118Z,24.2
2018-09-01T21:26:04.914Z,24.2
2018-09-01T21:28:04.643Z,24.2
2018-09-01T21:30:04.966Z,24.2
2018-09-01T21:32:04.951Z,24.2
2018-09-01T21:34:04.722Z,24.1
2018-09-01T21:36:04.819Z,24.2
2018-09-01T21:38:04.788Z,24.2
2018-09-01T21:40:08.040Z,24.1
2018-09-01T21:42:07.276Z,24.2
2018-09-01T21:44:04.926Z,24.1
2018-09-01T21:46:05.161Z,24.1
2018-09-01T21:48:07.368Z,24.2
2018-09-01T21:50:05.043Z,24.2
2018-09-01T21:52:12.559Z,24.2
2018-09-01T21:54:04.718Z,24.2
2018-09-01T21:56:05.396Z,24.2
2018-09-01T21:58:05.606Z,24.2
2018-09-01T22:00:07.810Z,24.1
2018-09-01T22:02:05.047Z,24.2
2018-09-01T22:04:04.720Z,24.1
2018-09-01T22:06:08.003Z,24.1
2018-09-01T22:08:04.700Z,24.1
2018-09-01T22:10:05.407Z,24.1
2018-09-01T22:12:07.177Z,24.2
2018-09-01T22:14:05.104Z,24.2
2018-09-01T22:16:07.353Z,24.2
2018-09-01T22:18:05.362Z,24.2
2018-09-01T22:20:07.613Z,24.2
2018-09-01T22:22:05.353Z,24.2
2018-09-01T22:24:07.607Z,24.2
2018-09-01T22:26:07.915Z,24.2
2018-09-01T22:28:07.732Z,24.2
2018-09-01T22:30:07.959Z,24.2
2018-09-01T22:32:04.723Z,24.2
2018-09-01T22:34:10.521Z,24.2
2018-09-01T22:36:09.835Z,24.2
2018-09-01T22:38:07.204Z,24.2
2018-09-01T22:40:04.884Z,24.2
2018-09-01T22:42:05.565Z,24.2
2018-09-01T22:44:05.265Z,24.2
2018-09-01T22:46:05.034Z,24.2
2018-09-01T22:48:04.785Z,24.2
2018-09-01T22:50:05.505Z,24.2
2018-09-01T22:52:05.274Z,24.2
2018-09-01T22:54:04.958Z,24.2
2018-09-01T22:56:07.148Z,24.2
2018-09-01T22:58:07.377Z,24.1
2018-09-01T23:00:05.072Z,24
2018-09-01T23:02:04.782Z,24.1
2018-09-01T23:04:05.035Z,24.1
2018-09-01T23:06:04.743Z,24.2
2018-09-01T23:08:05.466Z,24.1
2018-09-01T23:10:10.218Z,24.1
2018-09-01T23:12:07.524Z,24.1
2018-09-01T23:14:05.295Z,24.1
2018-09-01T23:16:10.016Z,24.1
2018-09-01T23:18:04.920Z,24.1
2018-09-01T23:20:04.623Z,24.1
2018-09-01T23:22:05.341Z,24.2
2018-09-01T23:24:07.590Z,24.2
2018-09-01T23:26:05.252Z,24.1
2018-09-01T23:28:04.996Z,24.2
2018-09-01T23:30:07.244Z,24.2
2018-09-01T23:32:07.532Z,24.2
2018-09-01T23:34:04.745Z,24.2
2018-09-01T23:36:05.409Z,24.2
2018-09-01T23:38:05.184Z,24.1
2018-09-01T23:40:04.860Z,24
2018-09-01T23:42:08.110Z,23.9
2018-09-01T23:44:04.867Z,23.9
2018-09-01T23:46:08.065Z,23.8
2018-09-01T23:48:04.888Z,23.8
2018-09-01T23:50:05.658Z,23.8
2018-09-01T23:52:05.393Z,23.7
2018-09-01T23:54:05.216Z,23.7
2018-09-01T23:56:07.434Z,23.7
2018-09-01T23:58:05.174Z,23.7
